createdAt,value
2023-02-02T00:00:20.173Z,12.05
2023-02-02T00:03:25.548Z,12.60
2023-02-02T00:06:32.375Z,11.10
2023-02-02T00:09:37.508Z,11.73
2023-02-02T00:12:45.527Z,12.00
2023-02-02T00:15:51.087Z,12.48
2023-02-02T00:18:56.975Z,12.98
2023-02-02T00:22:02.488Z,12.02
2023-02-02T00:25:07.784Z,11.10
2023-02-02T00:28:16.304Z,11.07
2023-02-02T00:31:21.808Z,12.05
2023-02-02T00:34:27.562Z,10.52
2023-02-02T00:37:33.367Z,12.10
2023-02-02T00:40:38.579Z,10.63
2023-02-02T00:43:48.473Z,9.98
2023-02-02T00:46:51.371Z,10.88
2023-02-02T00:49:56.803Z,10.40
2023-02-02T00:53:02.248Z,10.52
2023-02-02T00:56:08.479Z,11.35
2023-02-02T00:59:16.519Z,10.85
2023-02-02T01:02:26.748Z,11.13
2023-02-02T01:05:31.948Z,10.80
2023-02-02T01:08:37.389Z,10.60
2023-02-02T01:11:42.803Z,10.88
2023-02-02T01:14:50.759Z,10.52
2023-02-02T01:17:56.210Z,10.48
2023-02-02T01:21:01.816Z,11.23
2023-02-02T01:24:07.054Z,10.88
2023-02-02T01:27:12.421Z,10.00
2023-02-02T01:30:20.597Z,10.63
2023-02-02T01:33:27.100Z,10.35
2023-02-02T01:36:32.576Z,11.55
2023-02-02T01:39:37.908Z,11.07
2023-02-02T01:42:43.535Z,10.82
2023-02-02T01:45:51.603Z,9.98
2023-02-02T01:48:59.381Z,10.95
2023-02-02T01:52:05.245Z,10.00
2023-02-02T01:55:12.608Z,10.90
2023-02-02T01:58:20.180Z,11.57
2023-02-02T02:01:28.037Z,9.52
2023-02-02T02:04:34.265Z,9.93
2023-02-02T02:07:41.390Z,9.68
2023-02-02T02:10:46.805Z,10.80
2023-02-02T02:14:05.674Z,10.48
2023-02-02T02:17:44.431Z,10.68
2023-02-02T02:21:25.857Z,10.90
2023-02-02T02:24:59.865Z,11.07
2023-02-02T02:28:19.931Z,11.30
2023-02-02T02:31:46.544Z,12.35
2023-02-02T02:34:57.150Z,11.13
2023-02-02T02:38:09.387Z,11.85
2023-02-02T02:41:17.160Z,11.88
2023-02-02T02:44:23.195Z,11.18
2023-02-02T02:47:29.258Z,11.05
2023-02-02T02:50:37.493Z,12.32
2023-02-02T02:53:43.207Z,11.48
2023-02-02T02:56:57.661Z,11.57
2023-02-02T03:00:07.092Z,11.95
2023-02-02T03:03:17.434Z,11.82
2023-02-02T03:06:27.431Z,12.73
2023-02-02T03:09:35.408Z,12.02
2023-02-02T03:12:47.218Z,11.20
2023-02-02T03:15:52.588Z,11.40
2023-02-02T03:18:58.531Z,11.95
2023-02-02T03:22:06.557Z,11.75
2023-02-02T03:28:17.769Z,11.57
2023-02-02T03:31:23.367Z,12.50
2023-02-02T03:34:29.202Z,11.57
2023-02-02T03:37:37.695Z,12.65
2023-02-02T03:40:43.334Z,11.25
2023-02-02T03:43:48.872Z,11.93
2023-02-02T03:46:56.694Z,11.50
2023-02-02T03:50:02.263Z,11.77
2023-02-02T03:53:11.534Z,11.45
2023-02-02T03:56:16.897Z,12.32
2023-02-02T03:59:22.801Z,12.40
2023-02-02T04:02:28.370Z,11.60
2023-02-02T04:05:33.815Z,10.80
2023-02-02T04:08:42.455Z,12.05
2023-02-02T04:14:52.893Z,11.18
2023-02-02T04:17:58.290Z,11.70
2023-02-02T04:21:04.683Z,12.65
2023-02-02T04:24:13.919Z,11.48
2023-02-02T04:27:19.805Z,12.07
2023-02-02T04:30:25.479Z,13.07
2023-02-02T04:33:31.608Z,11.88
2023-02-02T04:36:36.677Z,11.70
2023-02-02T04:39:44.622Z,11.80
2023-02-02T04:42:50.382Z,11.48
2023-02-02T04:45:58.435Z,12.55
2023-02-02T04:49:03.822Z,11.93
2023-02-02T04:52:09.676Z,12.57
2023-02-02T04:55:17.899Z,12.20
2023-02-02T04:58:22.960Z,12.70
2023-02-02T05:01:29.715Z,12.55
2023-02-02T05:04:34.924Z,12.57
2023-02-02T05:07:40.932Z,12.82
2023-02-02T05:10:50.686Z,11.98
2023-02-02T05:13:57.041Z,12.70
2023-02-02T05:17:02.499Z,11.95
2023-02-02T05:20:08.405Z,12.25
2023-02-02T05:23:13.816Z,12.63
2023-02-02T05:26:24.031Z,13.10
2023-02-02T05:29:30.043Z,12.02
2023-02-02T05:32:35.258Z,13.10
2023-02-02T05:35:41.064Z,13.52
2023-02-02T05:38:46.267Z,11.50
2023-02-02T05:41:54.367Z,13.23
2023-02-02T05:45:00.045Z,12.48
2023-02-02T05:48:05.835Z,14.40
2023-02-02T05:51:14.412Z,14.07
2023-02-02T05:54:20.869Z,13.27
2023-02-02T05:57:28.776Z,13.73
2023-02-02T06:00:34.402Z,12.73
2023-02-02T06:03:39.963Z,13.68
2023-02-02T06:06:45.000Z,14.30
2023-02-02T06:09:50.591Z,14.30
2023-02-02T06:12:58.850Z,15.65
2023-02-02T06:16:04.218Z,14.65
2023-02-02T06:19:09.910Z,14.85
2023-02-02T06:22:15.446Z,14.75
2023-02-02T06:25:20.615Z,15.25
2023-02-02T06:28:31.043Z,15.50
2023-02-02T06:31:37.221Z,15.93
2023-02-02T06:34:42.946Z,13.40
2023-02-02T06:37:49.363Z,15.98
2023-02-02T06:40:54.580Z,15.45
2023-02-02T06:44:02.527Z,15.77
2023-02-02T06:47:08.499Z,13.88
2023-02-02T06:50:14.875Z,15.25
2023-02-02T06:53:23.430Z,14.95
2023-02-02T06:56:28.867Z,14.25
2023-02-02T06:59:36.956Z,14.57
2023-02-02T07:02:42.365Z,13.63
2023-02-02T07:05:48.107Z,14.57
2023-02-02T07:09:01.934Z,14.68
2023-02-02T07:12:09.130Z,15.45
2023-02-02T07:15:17.210Z,14.90
2023-02-02T07:18:23.368Z,15.02
2023-02-02T07:21:30.291Z,15.43
2023-02-02T07:24:35.878Z,15.10
2023-02-02T07:27:40.964Z,14.32
2023-02-02T07:30:48.732Z,13.77
2023-02-02T07:33:54.413Z,13.55
2023-02-02T07:37:00.892Z,15.52
2023-02-02T07:40:06.050Z,13.70
2023-02-02T07:43:11.375Z,13.63
2023-02-02T07:46:20.294Z,12.98
2023-02-02T07:49:25.551Z,13.18
2023-02-02T07:52:32.497Z,14.48
2023-02-02T07:55:37.733Z,13.52
2023-02-02T07:58:43.314Z,13.30
2023-02-02T08:01:51.915Z,13.38
2023-02-02T08:08:01.989Z,14.88
2023-02-02T08:11:07.591Z,14.50
2023-02-02T08:14:15.632Z,14.68
2023-02-02T08:17:23.839Z,15.65
2023-02-02T08:20:29.466Z,14.52
2023-02-02T08:23:34.678Z,14.88
2023-02-02T08:26:40.434Z,15.27
2023-02-02T08:29:46.333Z,16.58
2023-02-02T08:32:54.475Z,14.63
2023-02-02T08:39:06.170Z,13.40
2023-02-02T08:42:11.789Z,14.00
2023-02-02T08:46:03.247Z,13.07
2023-02-02T08:48:45.266Z,13.80
2023-02-02T08:51:50.986Z,14.00
2023-02-02T08:54:56.121Z,13.82
2023-02-02T08:58:01.383Z,14.07
2023-02-02T09:01:10.728Z,14.32
2023-02-02T09:04:19.501Z,13.65
2023-02-02T09:07:25.101Z,13.88
2023-02-02T09:10:32.506Z,12.75
2023-02-02T09:13:38.114Z,13.70
2023-02-02T09:16:44.308Z,13.15
2023-02-02T09:19:52.979Z,13.85
2023-02-02T09:22:58.601Z,14.13
2023-02-02T09:26:12.546Z,13.25
2023-02-02T09:29:19.336Z,13.95
2023-02-02T09:32:24.913Z,12.68
2023-02-02T09:35:32.984Z,12.88
2023-02-02T09:38:39.036Z,11.45
2023-02-02T09:42:00.552Z,13.13
2023-02-02T09:45:09.523Z,11.93
2023-02-02T09:48:22.216Z,12.52
2023-02-02T09:51:32.281Z,13.85
2023-02-02T09:54:40.266Z,14.20
2023-02-02T09:57:48.363Z,13.60
2023-02-02T10:00:58.075Z,11.73
2023-02-02T10:04:05.892Z,12.70
2023-02-02T10:07:15.967Z,12.88
2023-02-02T10:10:24.902Z,13.18
2023-02-02T10:13:33.725Z,12.48
2023-02-02T10:16:40.493Z,12.02
2023-02-02T10:19:46.121Z,11.98
2023-02-02T10:22:54.545Z,12.10
2023-02-02T10:29:09.980Z,12.20
2023-02-02T10:32:23.294Z,11.05
2023-02-02T10:35:33.603Z,13.98
2023-02-02T10:38:45.025Z,13.95
2023-02-02T10:41:55.668Z,12.57
2023-02-02T10:45:03.095Z,13.52
2023-02-02T10:48:16.592Z,14.82
2023-02-02T10:51:25.148Z,12.90
2023-02-02T10:57:50.780Z,12.75
2023-02-02T11:00:58.346Z,11.85
2023-02-02T11:04:16.283Z,13.63
2023-02-02T11:07:21.811Z,12.77
2023-02-02T11:10:27.758Z,14.85
2023-02-02T11:13:37.388Z,13.70
2023-02-02T11:16:44.515Z,13.68
2023-02-02T11:19:50.527Z,15.90
2023-02-02T11:23:05.547Z,12.75
2023-02-02T11:26:10.877Z,13.27
2023-02-02T11:29:21.784Z,12.52
2023-02-02T11:32:31.364Z,13.60
2023-02-02T11:35:39.381Z,13.40
2023-02-02T11:38:44.964Z,14.20
2023-02-02T11:41:50.658Z,13.43
2023-02-02T11:45:00.328Z,13.02
2023-02-02T11:48:10.689Z,14.00
2023-02-02T11:51:24.226Z,14.20
2023-02-02T11:54:31.263Z,13.80
2023-02-02T11:57:36.751Z,13.68
2023-02-02T12:00:52.026Z,12.82
2023-02-02T12:03:59.497Z,15.10
2023-02-02T12:07:05.025Z,14.17
2023-02-02T12:10:16.968Z,14.77
2023-02-02T12:13:29.564Z,11.95
2023-02-02T12:16:41.730Z,12.70
2023-02-02T12:19:56.423Z,13.15
2023-02-02T12:23:19.334Z,12.88
2023-02-02T12:26:27.474Z,14.65
2023-02-02T12:29:38.146Z,12.38
2023-02-02T12:32:55.126Z,13.90
2023-02-02T12:36:07.553Z,12.27
2023-02-02T12:39:22.794Z,13.57
2023-02-02T12:42:32.611Z,13.23
2023-02-02T12:45:46.510Z,14.32
2023-02-02T12:49:05.394Z,13.10
2023-02-02T12:52:24.990Z,13.63
2023-02-02T12:55:39.214Z,13.68
2023-02-02T12:58:46.344Z,12.65
2023-02-02T13:02:06.840Z,13.75
2023-02-02T13:05:26.714Z,13.98
2023-02-02T13:08:35.737Z,12.80
2023-02-02T13:11:46.132Z,14.90
2023-02-02T13:14:52.530Z,15.20
2023-02-02T13:17:59.292Z,13.75
2023-02-02T13:21:10.525Z,14.02
2023-02-02T13:24:18.875Z,13.43
2023-02-02T13:27:24.821Z,13.60
2023-02-02T13:30:35.436Z,13.95
2023-02-02T13:33:41.196Z,15.75
2023-02-02T13:36:51.387Z,13.95
2023-02-02T13:39:59.394Z,15.00
2023-02-02T13:43:09.955Z,15.50
2023-02-02T13:46:21.591Z,16.45
2023-02-02T13:49:29.998Z,13.95
2023-02-02T13:55:58.241Z,16.30
2023-02-02T13:59:13.053Z,15.63
2023-02-02T14:02:25.057Z,15.70
2023-02-02T14:05:31.941Z,16.30
2023-02-02T14:08:37.848Z,14.85
2023-02-02T14:11:46.963Z,15.60
2023-02-02T14:14:55.063Z,15.95
2023-02-02T14:18:00.495Z,16.98
2023-02-02T14:21:06.055Z,16.80
2023-02-02T14:24:26.307Z,15.93
2023-02-02T14:27:58.958Z,17.15
2023-02-02T14:31:28.331Z,15.80
2023-02-02T14:34:37.299Z,16.23
2023-02-02T14:37:47.278Z,17.27
2023-02-02T14:40:56.259Z,18.77
2023-02-02T14:44:03.914Z,17.92
2023-02-02T14:47:24.690Z,19.02
2023-02-02T14:50:46.908Z,16.88
2023-02-02T14:53:56.450Z,19.15
2023-02-02T14:57:03.904Z,19.42
2023-02-02T15:00:10.130Z,18.20
2023-02-02T15:03:31.137Z,19.38
2023-02-02T15:06:37.670Z,19.90
2023-02-02T15:09:45.578Z,19.58
2023-02-02T15:12:51.553Z,19.70
2023-02-02T15:16:07.827Z,19.40
2023-02-02T15:19:20.815Z,20.83
2023-02-02T15:22:30.148Z,20.35
2023-02-02T15:25:40.279Z,19.65
2023-02-02T15:28:46.667Z,20.42
2023-02-02T15:31:55.266Z,20.73
2023-02-02T15:35:02.287Z,21.05
2023-02-02T15:38:10.426Z,21.15
2023-02-02T15:41:22.046Z,20.90
2023-02-02T15:44:32.396Z,19.80
2023-02-02T15:47:41.875Z,19.95
2023-02-02T15:50:51.479Z,19.27
2023-02-02T15:53:57.157Z,18.92
2023-02-02T15:57:06.241Z,19.45
2023-02-02T16:00:27.045Z,20.42
2023-02-02T16:03:46.327Z,20.40
2023-02-02T16:06:52.693Z,19.25
2023-02-02T16:09:58.375Z,20.20
2023-02-02T16:13:07.168Z,20.35
2023-02-02T16:16:25.121Z,19.65
2023-02-02T16:19:30.594Z,19.88
2023-02-02T16:22:36.138Z,20.33
2023-02-02T16:25:50.388Z,19.08
2023-02-02T16:28:58.765Z,20.30
2023-02-02T16:35:10.713Z,19.55
2023-02-02T16:38:16.719Z,18.33
2023-02-02T16:41:29.540Z,19.42
2023-02-02T16:44:40.848Z,19.55
2023-02-02T16:47:46.330Z,19.02
2023-02-02T16:51:05.666Z,20.17
2023-02-02T16:54:17.410Z,20.02
2023-02-02T16:57:24.035Z,19.60
2023-02-02T17:00:33.696Z,20.10
2023-02-02T17:03:42.532Z,18.42
2023-02-02T17:10:15.200Z,18.10
2023-02-02T17:13:36.681Z,18.75
2023-02-02T17:16:45.378Z,19.23
2023-02-02T17:22:57.672Z,18.73
2023-02-02T17:26:03.111Z,18.40
2023-02-02T17:29:08.814Z,18.50
2023-02-02T17:32:17.561Z,18.50
2023-02-02T17:38:28.457Z,19.25
2023-02-02T17:41:34.238Z,21.42
2023-02-02T17:44:39.365Z,19.20
2023-02-02T17:47:47.916Z,20.17
2023-02-02T17:50:53.225Z,19.90
2023-02-02T17:54:00.413Z,19.35
2023-02-02T17:57:05.635Z,18.77
2023-02-02T18:00:11.744Z,19.60
2023-02-02T18:03:22.844Z,20.25
2023-02-02T18:06:28.179Z,19.13
2023-02-02T18:09:34.760Z,19.27
2023-02-02T18:12:40.623Z,19.92
2023-02-02T18:15:46.323Z,18.73
2023-02-02T18:18:54.706Z,19.13
2023-02-02T18:22:00.070Z,19.00
2023-02-02T18:25:05.258Z,18.48
2023-02-02T18:28:11.256Z,19.00
2023-02-02T18:31:17.209Z,19.80
2023-02-02T18:34:25.663Z,19.02
2023-02-02T18:37:31.008Z,17.98
2023-02-02T18:40:36.612Z,16.92
2023-02-02T18:43:42.477Z,17.38
2023-02-02T18:46:48.157Z,18.15
2023-02-02T18:49:55.828Z,18.98
2023-02-02T18:53:01.680Z,17.42
2023-02-02T18:56:08.224Z,18.20
2023-02-02T18:59:13.927Z,16.95
2023-02-02T19:02:20.334Z,18.63
2023-02-02T19:05:46.247Z,17.83
2023-02-02T19:08:51.471Z,18.50
2023-02-02T19:11:57.608Z,21.00
2023-02-02T19:15:04.112Z,19.20
2023-02-02T19:18:15.105Z,17.98
2023-02-02T19:21:22.938Z,18.63
2023-02-02T19:24:29.955Z,17.55
2023-02-02T19:27:36.479Z,18.00
2023-02-02T19:30:45.580Z,17.83
2023-02-02T19:33:51.793Z,18.52
2023-02-02T19:36:59.722Z,18.00
2023-02-02T19:40:16.517Z,18.23
2023-02-02T19:43:24.657Z,19.00
2023-02-02T19:46:30.900Z,18.58
2023-02-02T19:49:36.996Z,18.25
2023-02-02T19:52:46.577Z,17.85
2023-02-02T19:55:52.214Z,19.35
2023-02-02T19:58:57.732Z,19.40
2023-02-02T20:02:04.283Z,19.40
2023-02-02T20:05:17.492Z,19.98
2023-02-02T20:08:26.864Z,22.13
2023-02-02T20:11:35.833Z,19.23
2023-02-02T20:14:41.973Z,28.45
2023-02-02T20:17:47.350Z,25.83
2023-02-02T20:20:54.598Z,21.30
2023-02-02T20:24:02.459Z,21.00
2023-02-02T20:27:09.335Z,20.67
2023-02-02T20:30:22.284Z,22.08
2023-02-02T20:33:27.932Z,19.52
2023-02-02T20:36:39.257Z,19.88
2023-02-02T20:39:50.461Z,19.90
2023-02-02T20:42:57.214Z,20.65
2023-02-02T20:46:02.727Z,19.48
2023-02-02T20:49:08.244Z,18.33
2023-02-02T20:52:21.693Z,19.25
2023-02-02T20:55:29.781Z,18.70
2023-02-02T20:58:35.637Z,18.58
2023-02-02T21:01:40.925Z,18.25
2023-02-02T21:04:47.394Z,20.10
2023-02-02T21:07:55.373Z,19.42
2023-02-02T21:11:03.310Z,21.02
2023-02-02T21:14:08.980Z,20.17
2023-02-02T21:17:15.908Z,19.73
2023-02-02T21:20:22.327Z,21.13
2023-02-02T21:23:27.688Z,20.40
2023-02-02T21:26:35.989Z,18.77
2023-02-02T21:29:41.319Z,20.25
2023-02-02T21:32:47.276Z,18.45
2023-02-02T21:35:52.376Z,18.73
2023-02-02T21:38:58.083Z,18.50
2023-02-02T21:42:13.595Z,20.08
2023-02-02T21:45:39.945Z,20.98
2023-02-02T21:48:45.227Z,19.60
2023-02-02T21:51:50.973Z,20.52
2023-02-02T21:54:56.713Z,20.13
2023-02-02T21:58:11.551Z,19.20
2023-02-02T22:01:24.336Z,20.10
2023-02-02T22:04:30.874Z,19.85
2023-02-02T22:07:36.470Z,20.17
2023-02-02T22:10:42.379Z,18.95
2023-02-02T22:13:51.040Z,19.08
2023-02-02T22:16:58.456Z,18.80
2023-02-02T22:20:06.262Z,19.65
2023-02-02T22:23:12.532Z,19.67
2023-02-02T22:26:29.598Z,19.73
2023-02-02T22:29:38.574Z,19.08
2023-02-02T22:32:44.351Z,21.08
2023-02-02T22:36:08.632Z,20.63
2023-02-02T22:39:13.950Z,20.73
2023-02-02T22:42:19.601Z,18.73
2023-02-02T22:45:27.930Z,20.10
2023-02-02T22:51:38.562Z,19.50
2023-02-02T22:54:44.389Z,20.70
2023-02-02T22:57:49.943Z,18.98
2023-02-02T23:00:58.179Z,20.23
2023-02-02T23:04:03.338Z,19.77
2023-02-02T23:07:09.231Z,19.65
2023-02-02T23:10:14.927Z,19.23
2023-02-02T23:13:20.765Z,18.48
2023-02-02T23:16:28.726Z,19.70
2023-02-02T23:19:34.289Z,18.75
2023-02-02T23:22:39.589Z,18.05
2023-02-02T23:25:45.266Z,19.25
2023-02-02T23:28:50.490Z,19.25
2023-02-02T23:31:58.667Z,18.52
2023-02-02T23:35:03.797Z,16.85
2023-02-02T23:38:09.758Z,18.13
2023-02-02T23:41:14.788Z,19.85
2023-02-02T23:44:20.340Z,19.48
2023-02-02T23:47:28.599Z,20.30
2023-02-02T23:50:34.443Z,17.38
2023-02-02T23:53:39.833Z,19.55
2023-02-02T23:56:45.483Z,18.20
2023-02-02T23:59:50.834Z,17.92
